sensor_id;sensor_type;location;lat;lon;timestamp;temperature;humidity
14783;DHT22;7483;50.498;12.138;2023-03-04T00:00:06;0.20;99.90
14783;DHT22;7483;50.498;12.138;2023-03-04T00:02:38;0.30;99.90
14783;DHT22;7483;50.498;12.138;2023-03-04T00:05:06;0.30;99.90
14783;DHT22;7483;50.498;12.138;2023-03-04T00:07:36;0.30;99.90
14783;DHT22;7483;50.498;12.138;2023-03-04T00:10:05;0.30;99.90
14783;DHT22;7483;50.498;12.138;2023-03-04T00:12:33;0.40;99.90
14783;DHT22;7483;50.498;12.138;2023-03-04T00:15:02;0.50;99.90
14783;DHT22;7483;50.498;12.138;2023-03-04T00:17:30;0.50;99.90
14783;DHT22;7483;50.498;12.138;2023-03-04T00:19:58;0.40;99.90
14783;DHT22;7483;50.498;12.138;2023-03-04T00:22:26;0.50;99.90
14783;DHT22;7483;50.498;12.138;2023-03-04T00:24:55;0.60;99.90
14783;DHT22;7483;50.498;12.138;2023-03-04T00:27:23;0.60;99.90
14783;DHT22;7483;50.498;12.138;2023-03-04T00:29:51;0.60;99.90
14783;DHT22;7483;50.498;12.138;2023-03-04T00:32:19;0.60;99.90
14783;DHT22;7483;50.498;12.138;2023-03-04T00:34:50;0.50;99.90
14783;DHT22;7483;50.498;12.138;2023-03-04T00:37:18;0.50;99.90
14783;DHT22;7483;50.498;12.138;2023-03-04T00:39:46;0.50;99.90
14783;DHT22;7483;50.498;12.138;2023-03-04T00:42:15;0.40;99.90
14783;DHT22;7483;50.498;12.138;2023-03-04T00:44:43;0.40;99.90
14783;DHT22;7483;50.498;12.138;2023-03-04T00:47:11;0.50;99.90
14783;DHT22;7483;50.498;12.138;2023-03-04T00:49:39;0.50;99.90
14783;DHT22;7483;50.498;12.138;2023-03-04T00:52:07;0.50;99.90
14783;DHT22;7483;50.498;12.138;2023-03-04T00:54:35;0.50;99.90
14783;DHT22;7483;50.498;12.138;2023-03-04T00:57:03;0.50;99.90
14783;DHT22;7483;50.498;12.138;2023-03-04T00:59:33;0.40;99.90
14783;DHT22;7483;50.498;12.138;2023-03-04T01:02:01;0.40;99.90
14783;DHT22;7483;50.498;12.138;2023-03-04T01:04:29;0.50;99.90
14783;DHT22;7483;50.498;12.138;2023-03-04T01:06:58;0.50;99.90
14783;DHT22;7483;50.498;12.138;2023-03-04T01:09:27;0.60;99.90
14783;DHT22;7483;50.498;12.138;2023-03-04T01:11:55;0.60;99.90
14783;DHT22;7483;50.498;12.138;2023-03-04T01:14:24;0.40;99.90
14783;DHT22;7483;50.498;12.138;2023-03-04T01:16:53;0.40;99.90
14783;DHT22;7483;50.498;12.138;2023-03-04T01:19:21;0.40;99.90
14783;DHT22;7483;50.498;12.138;2023-03-04T01:21:49;0.50;99.90
14783;DHT22;7483;50.498;12.138;2023-03-04T01:24:18;0.60;99.90
14783;DHT22;7483;50.498;12.138;2023-03-04T01:26:46;0.60;99.90
14783;DHT22;7483;50.498;12.138;2023-03-04T01:29:14;0.50;99.90
14783;DHT22;7483;50.498;12.138;2023-03-04T01:31:42;0.50;99.90
14783;DHT22;7483;50.498;12.138;2023-03-04T01:34:12;0.40;99.90
14783;DHT22;7483;50.498;12.138;2023-03-04T01:36:40;0.40;99.90
14783;DHT22;7483;50.498;12.138;2023-03-04T01:39:08;0.40;99.90
14783;DHT22;7483;50.498;12.138;2023-03-04T01:41:36;0.20;99.90
14783;DHT22;7483;50.498;12.138;2023-03-04T01:44:04;0.20;99.90
14783;DHT22;7483;50.498;12.138;2023-03-04T01:46:32;0.30;99.90
14783;DHT22;7483;50.498;12.138;2023-03-04T01:49:01;0.40;99.90
14783;DHT22;7483;50.498;12.138;2023-03-04T01:51:30;0.40;99.90
14783;DHT22;7483;50.498;12.138;2023-03-04T01:53:58;0.50;99.90
14783;DHT22;7483;50.498;12.138;2023-03-04T01:56:28;0.40;99.90
14783;DHT22;7483;50.498;12.138;2023-03-04T01:59:09;0.40;99.90
14783;DHT22;7483;50.498;12.138;2023-03-04T02:01:40;0.40;99.90
14783;DHT22;7483;50.498;12.138;2023-03-04T02:04:10;0.40;99.90
14783;DHT22;7483;50.498;12.138;2023-03-04T02:06:40;0.40;99.90
14783;DHT22;7483;50.498;12.138;2023-03-04T02:09:10;0.40;99.90
14783;DHT22;7483;50.498;12.138;2023-03-04T02:11:38;0.50;99.90
14783;DHT22;7483;50.498;12.138;2023-03-04T02:14:09;0.50;99.90
14783;DHT22;7483;50.498;12.138;2023-03-04T02:16:38;0.50;99.90
14783;DHT22;7483;50.498;12.138;2023-03-04T02:19:12;0.50;99.90
14783;DHT22;7483;50.498;12.138;2023-03-04T02:21:47;0.50;99.90
14783;DHT22;7483;50.498;12.138;2023-03-04T02:24:21;0.50;99.90
14783;DHT22;7483;50.498;12.138;2023-03-04T02:26:53;0.50;99.90
14783;DHT22;7483;50.498;12.138;2023-03-04T02:29:21;0.40;99.90
14783;DHT22;7483;50.498;12.138;2023-03-04T02:31:51;0.40;99.90
14783;DHT22;7483;50.498;12.138;2023-03-04T02:34:22;0.40;99.90
14783;DHT22;7483;50.498;12.138;2023-03-04T02:36:55;0.40;99.90
14783;DHT22;7483;50.498;12.138;2023-03-04T02:39:30;0.40;99.90
14783;DHT22;7483;50.498;12.138;2023-03-04T02:42:02;0.30;99.90
14783;DHT22;7483;50.498;12.138;2023-03-04T02:44:35;0.30;99.90
14783;DHT22;7483;50.498;12.138;2023-03-04T02:47:06;0.30;99.90
14783;DHT22;7483;50.498;12.138;2023-03-04T02:49:37;0.30;99.90
14783;DHT22;7483;50.498;12.138;2023-03-04T02:52:09;0.30;99.90
14783;DHT22;7483;50.498;12.138;2023-03-04T02:54:40;0.40;99.90
14783;DHT22;7483;50.498;12.138;2023-03-04T02:57:12;0.40;99.90
14783;DHT22;7483;50.498;12.138;2023-03-04T02:59:44;0.40;99.90
14783;DHT22;7483;50.498;12.138;2023-03-04T03:02:17;0.40;99.90
14783;DHT22;7483;50.498;12.138;2023-03-04T03:04:45;0.40;99.90
14783;DHT22;7483;50.498;12.138;2023-03-04T03:07:16;0.40;99.90
14783;DHT22;7483;50.498;12.138;2023-03-04T03:09:44;0.50;99.90
14783;DHT22;7483;50.498;12.138;2023-03-04T03:12:14;0.50;99.90
14783;DHT22;7483;50.498;12.138;2023-03-04T03:14:42;0.50;99.90
14783;DHT22;7483;50.498;12.138;2023-03-04T03:17:12;0.50;99.90
14783;DHT22;7483;50.498;12.138;2023-03-04T03:19:40;0.50;99.90
14783;DHT22;7483;50.498;12.138;2023-03-04T03:22:09;0.40;99.90
14783;DHT22;7483;50.498;12.138;2023-03-04T03:24:37;0.40;99.90
14783;DHT22;7483;50.498;12.138;2023-03-04T03:27:05;0.40;99.90
14783;DHT22;7483;50.498;12.138;2023-03-04T03:29:35;0.40;99.90
14783;DHT22;7483;50.498;12.138;2023-03-04T03:32:06;0.40;99.90
14783;DHT22;7483;50.498;12.138;2023-03-04T03:34:34;0.50;99.90
14783;DHT22;7483;50.498;12.138;2023-03-04T03:37:02;0.60;99.90
14783;DHT22;7483;50.498;12.138;2023-03-04T03:39:30;0.70;99.90
14783;DHT22;7483;50.498;12.138;2023-03-04T03:41:58;0.70;99.90
14783;DHT22;7483;50.498;12.138;2023-03-04T03:44:26;0.70;99.90
14783;DHT22;7483;50.498;12.138;2023-03-04T03:46:56;0.60;99.90
14783;DHT22;7483;50.498;12.138;2023-03-04T03:49:25;0.70;99.90
14783;DHT22;7483;50.498;12.138;2023-03-04T03:51:53;0.70;99.90
14783;DHT22;7483;50.498;12.138;2023-03-04T03:54:21;0.80;99.90
14783;DHT22;7483;50.498;12.138;2023-03-04T03:56:48;0.80;99.90
14783;DHT22;7483;50.498;12.138;2023-03-04T03:59:16;0.80;99.90
14783;DHT22;7483;50.498;12.138;2023-03-04T04:01:45;1.00;99.90
14783;DHT22;7483;50.498;12.138;2023-03-04T04:04:15;1.00;99.90
14783;DHT22;7483;50.498;12.138;2023-03-04T04:06:42;0.90;99.90
14783;DHT22;7483;50.498;12.138;2023-03-04T04:09:10;0.90;99.90
14783;DHT22;7483;50.498;12.138;2023-03-04T04:11:38;0.90;99.90
14783;DHT22;7483;50.498;12.138;2023-03-04T04:14:08;0.90;99.90
14783;DHT22;7483;50.498;12.138;2023-03-04T04:16:38;1.10;99.90
14783;DHT22;7483;50.498;12.138;2023-03-04T04:19:06;1.10;99.90
14783;DHT22;7483;50.498;12.138;2023-03-04T04:21:35;1.10;99.90
14783;DHT22;7483;50.498;12.138;2023-03-04T04:24:03;1.10;99.90
14783;DHT22;7483;50.498;12.138;2023-03-04T04:26:31;1.10;99.90
14783;DHT22;7483;50.498;12.138;2023-03-04T04:29:00;1.20;99.90
14783;DHT22;7483;50.498;12.138;2023-03-04T04:31:28;1.20;99.90
14783;DHT22;7483;50.498;12.138;2023-03-04T04:33:56;1.10;99.90
14783;DHT22;7483;50.498;12.138;2023-03-04T04:36:24;1.20;99.90
14783;DHT22;7483;50.498;12.138;2023-03-04T04:38:53;1.20;99.90
14783;DHT22;7483;50.498;12.138;2023-03-04T04:41:23;1.20;99.90
14783;DHT22;7483;50.498;12.138;2023-03-04T04:43:53;1.30;99.90
14783;DHT22;7483;50.498;12.138;2023-03-04T04:46:21;1.30;99.90
14783;DHT22;7483;50.498;12.138;2023-03-04T04:48:49;1.30;99.90
14783;DHT22;7483;50.498;12.138;2023-03-04T04:51:17;1.30;99.90
14783;DHT22;7483;50.498;12.138;2023-03-04T04:53:45;1.30;99.90
14783;DHT22;7483;50.498;12.138;2023-03-04T04:56:16;1.40;99.90
14783;DHT22;7483;50.498;12.138;2023-03-04T04:58:46;1.50;99.90
14783;DHT22;7483;50.498;12.138;2023-03-04T05:01:15;1.40;99.90
14783;DHT22;7483;50.498;12.138;2023-03-04T05:03:43;1.40;99.90
14783;DHT22;7483;50.498;12.138;2023-03-04T05:06:12;1.40;99.90
14783;DHT22;7483;50.498;12.138;2023-03-04T05:08:40;1.40;99.90
14783;DHT22;7483;50.498;12.138;2023-03-04T05:11:08;1.40;99.90
14783;DHT22;7483;50.498;12.138;2023-03-04T05:13:37;1.40;99.90
14783;DHT22;7483;50.498;12.138;2023-03-04T05:16:06;1.50;99.90
14783;DHT22;7483;50.498;12.138;2023-03-04T05:18:34;1.50;99.90
14783;DHT22;7483;50.498;12.138;2023-03-04T05:21:03;1.50;99.90
14783;DHT22;7483;50.498;12.138;2023-03-04T05:23:33;1.50;99.90
14783;DHT22;7483;50.498;12.138;2023-03-04T05:26:02;1.50;99.90
14783;DHT22;7483;50.498;12.138;2023-03-04T05:28:31;1.50;99.90
14783;DHT22;7483;50.498;12.138;2023-03-04T05:31:01;1.50;99.90
14783;DHT22;7483;50.498;12.138;2023-03-04T05:33:29;1.50;99.90
14783;DHT22;7483;50.498;12.138;2023-03-04T05:35:57;1.60;99.90
14783;DHT22;7483;50.498;12.138;2023-03-04T05:38:25;1.60;99.90
14783;DHT22;7483;50.498;12.138;2023-03-04T05:40:57;1.60;99.90
14783;DHT22;7483;50.498;12.138;2023-03-04T05:43:27;1.60;99.90
14783;DHT22;7483;50.498;12.138;2023-03-04T05:45:56;1.60;99.90
14783;DHT22;7483;50.498;12.138;2023-03-04T05:48:25;1.60;99.90
14783;DHT22;7483;50.498;12.138;2023-03-04T05:50:55;1.60;99.90
14783;DHT22;7483;50.498;12.138;2023-03-04T05:53:24;1.60;99.90
14783;DHT22;7483;50.498;12.138;2023-03-04T05:55:52;1.60;99.90
14783;DHT22;7483;50.498;12.138;2023-03-04T05:58:21;1.60;99.90
14783;DHT22;7483;50.498;12.138;2023-03-04T06:00:49;1.60;99.90
14783;DHT22;7483;50.498;12.138;2023-03-04T06:03:19;1.60;99.90
14783;DHT22;7483;50.498;12.138;2023-03-04T06:05:50;1.70;99.90
14783;DHT22;7483;50.498;12.138;2023-03-04T06:08:18;1.70;99.90
14783;DHT22;7483;50.498;12.138;2023-03-04T06:10:46;1.70;99.90
14783;DHT22;7483;50.498;12.138;2023-03-04T06:13:14;1.70;99.90
14783;DHT22;7483;50.498;12.138;2023-03-04T06:15:42;1.70;99.90
14783;DHT22;7483;50.498;12.138;2023-03-04T06:18:10;1.70;99.90
14783;DHT22;7483;50.498;12.138;2023-03-04T06:20:38;1.70;99.90
14783;DHT22;7483;50.498;12.138;2023-03-04T06:23:08;1.70;99.90
14783;DHT22;7483;50.498;12.138;2023-03-04T06:25:35;1.80;99.90
14783;DHT22;7483;50.498;12.138;2023-03-04T06:28:03;1.90;99.90
14783;DHT22;7483;50.498;12.138;2023-03-04T06:30:32;1.90;99.90
14783;DHT22;7483;50.498;12.138;2023-03-04T06:33:00;1.90;99.90
14783;DHT22;7483;50.498;12.138;2023-03-04T06:35:28;1.90;99.90
14783;DHT22;7483;50.498;12.138;2023-03-04T06:37:56;1.90;99.90
14783;DHT22;7483;50.498;12.138;2023-03-04T06:40:25;1.80;99.90
14783;DHT22;7483;50.498;12.138;2023-03-04T06:42:53;1.80;99.90
14783;DHT22;7483;50.498;12.138;2023-03-04T06:45:21;1.80;99.90
14783;DHT22;7483;50.498;12.138;2023-03-04T06:47:49;1.90;99.90
14783;DHT22;7483;50.498;12.138;2023-03-04T06:50:17;1.90;99.90
14783;DHT22;7483;50.498;12.138;2023-03-04T06:52:45;1.90;99.90
14783;DHT22;7483;50.498;12.138;2023-03-04T06:55:14;1.90;99.90
14783;DHT22;7483;50.498;12.138;2023-03-04T06:57:43;2.00;99.90
14783;DHT22;7483;50.498;12.138;2023-03-04T07:00:15;2.10;99.90
14783;DHT22;7483;50.498;12.138;2023-03-04T07:02:44;2.10;99.90
14783;DHT22;7483;50.498;12.138;2023-03-04T07:05:12;2.00;99.90
14783;DHT22;7483;50.498;12.138;2023-03-04T07:07:41;2.00;99.90
14783;DHT22;7483;50.498;12.138;2023-03-04T07:10:10;2.00;99.90
14783;DHT22;7483;50.498;12.138;2023-03-04T07:12:38;2.00;99.90
14783;DHT22;7483;50.498;12.138;2023-03-04T07:15:09;2.10;99.90
14783;DHT22;7483;50.498;12.138;2023-03-04T07:17:37;2.10;99.90
14783;DHT22;7483;50.498;12.138;2023-03-04T07:20:06;2.00;99.90
14783;DHT22;7483;50.498;12.138;2023-03-04T07:22:35;2.00;99.90
14783;DHT22;7483;50.498;12.138;2023-03-04T07:25:03;2.00;99.90
14783;DHT22;7483;50.498;12.138;2023-03-04T07:27:32;1.90;99.90
14783;DHT22;7483;50.498;12.138;2023-03-04T07:30:00;1.90;99.90
14783;DHT22;7483;50.498;12.138;2023-03-04T07:32:30;2.00;99.90
14783;DHT22;7483;50.498;12.138;2023-03-04T07:35:00;2.10;99.90
14783;DHT22;7483;50.498;12.138;2023-03-04T07:37:29;2.10;99.90
14783;DHT22;7483;50.498;12.138;2023-03-04T07:39:57;2.10;99.90
14783;DHT22;7483;50.498;12.138;2023-03-04T07:42:24;2.10;99.90
14783;DHT22;7483;50.498;12.138;2023-03-04T07:44:59;2.10;99.90
14783;DHT22;7483;50.498;12.138;2023-03-04T07:47:27;2.10;99.90
14783;DHT22;7483;50.498;12.138;2023-03-04T07:49:56;2.10;99.90
14783;DHT22;7483;50.498;12.138;2023-03-04T07:52:24;2.20;99.90
14783;DHT22;7483;50.498;12.138;2023-03-04T07:54:52;2.20;99.90
14783;DHT22;7483;50.498;12.138;2023-03-04T07:57:20;2.20;99.90
14783;DHT22;7483;50.498;12.138;2023-03-04T07:59:48;2.20;99.90
14783;DHT22;7483;50.498;12.138;2023-03-04T08:02:16;2.30;99.90
14783;DHT22;7483;50.498;12.138;2023-03-04T08:04:44;2.20;99.90
14783;DHT22;7483;50.498;12.138;2023-03-04T08:07:13;2.30;99.90
14783;DHT22;7483;50.498;12.138;2023-03-04T08:09:42;2.30;99.90
14783;DHT22;7483;50.498;12.138;2023-03-04T08:12:10;2.30;99.90
14783;DHT22;7483;50.498;12.138;2023-03-04T08:14:38;2.40;99.90
14783;DHT22;7483;50.498;12.138;2023-03-04T08:17:06;2.50;99.90
14783;DHT22;7483;50.498;12.138;2023-03-04T08:19:35;2.50;99.90
14783;DHT22;7483;50.498;12.138;2023-03-04T08:22:03;2.40;99.90
14783;DHT22;7483;50.498;12.138;2023-03-04T08:24:32;2.40;99.90
14783;DHT22;7483;50.498;12.138;2023-03-04T08:27:01;2.40;99.90
14783;DHT22;7483;50.498;12.138;2023-03-04T08:29:29;2.40;99.90
14783;DHT22;7483;50.498;12.138;2023-03-04T08:31:57;2.40;99.90
14783;DHT22;7483;50.498;12.138;2023-03-04T08:34:26;2.40;99.90
14783;DHT22;7483;50.498;12.138;2023-03-04T08:36:55;2.40;99.90
14783;DHT22;7483;50.498;12.138;2023-03-04T08:39:22;2.50;99.90
14783;DHT22;7483;50.498;12.138;2023-03-04T08:41:52;2.50;99.90
14783;DHT22;7483;50.498;12.138;2023-03-04T08:44:20;2.60;99.90
14783;DHT22;7483;50.498;12.138;2023-03-04T08:46:49;2.60;99.90
14783;DHT22;7483;50.498;12.138;2023-03-04T08:49:17;2.60;99.90
14783;DHT22;7483;50.498;12.138;2023-03-04T08:51:45;2.60;99.90
14783;DHT22;7483;50.498;12.138;2023-03-04T08:54:13;2.60;99.90
14783;DHT22;7483;50.498;12.138;2023-03-04T08:56:41;2.60;99.90
14783;DHT22;7483;50.498;12.138;2023-03-04T08:59:10;2.60;99.90
14783;DHT22;7483;50.498;12.138;2023-03-04T09:01:38;2.60;99.90
14783;DHT22;7483;50.498;12.138;2023-03-04T09:04:06;2.70;99.90
14783;DHT22;7483;50.498;12.138;2023-03-04T09:06:34;2.70;99.90
14783;DHT22;7483;50.498;12.138;2023-03-04T09:09:03;2.80;99.90
14783;DHT22;7483;50.498;12.138;2023-03-04T09:11:31;2.80;99.90
14783;DHT22;7483;50.498;12.138;2023-03-04T09:13:59;2.80;99.90
14783;DHT22;7483;50.498;12.138;2023-03-04T09:16:28;2.80;99.90
14783;DHT22;7483;50.498;12.138;2023-03-04T09:18:56;2.80;99.90
14783;DHT22;7483;50.498;12.138;2023-03-04T09:21:24;2.80;99.90
14783;DHT22;7483;50.498;12.138;2023-03-04T09:23:52;2.90;99.90
14783;DHT22;7483;50.498;12.138;2023-03-04T09:26:22;2.90;99.90
14783;DHT22;7483;50.498;12.138;2023-03-04T09:28:52;2.90;99.90
14783;DHT22;7483;50.498;12.138;2023-03-04T09:31:21;2.90;99.90
14783;DHT22;7483;50.498;12.138;2023-03-04T09:33:51;2.90;99.90
14783;DHT22;7483;50.498;12.138;2023-03-04T09:36:20;2.90;99.90
14783;DHT22;7483;50.498;12.138;2023-03-04T09:38:49;3.00;99.90
14783;DHT22;7483;50.498;12.138;2023-03-04T09:41:20;3.00;99.90
14783;DHT22;7483;50.498;12.138;2023-03-04T09:43:53;3.00;99.90
14783;DHT22;7483;50.498;12.138;2023-03-04T09:46:27;3.10;99.90
14783;DHT22;7483;50.498;12.138;2023-03-04T09:49:00;3.20;99.90
14783;DHT22;7483;50.498;12.138;2023-03-04T09:51:43;3.20;99.90
14783;DHT22;7483;50.498;12.138;2023-03-04T09:54:26;3.30;99.90
14783;DHT22;7483;50.498;12.138;2023-03-04T09:57:21;3.30;99.90
14783;DHT22;7483;50.498;12.138;2023-03-04T10:00:03;3.30;99.90
14783;DHT22;7483;50.498;12.138;2023-03-04T10:02:48;3.40;99.90
14783;DHT22;7483;50.498;12.138;2023-03-04T10:05:30;3.50;99.90
14783;DHT22;7483;50.498;12.138;2023-03-04T10:08:23;3.50;99.90
14783;DHT22;7483;50.498;12.138;2023-03-04T10:10:59;3.50;99.90
14783;DHT22;7483;50.498;12.138;2023-03-04T10:13:33;3.50;99.90
14783;DHT22;7483;50.498;12.138;2023-03-04T10:16:09;3.50;99.90
14783;DHT22;7483;50.498;12.138;2023-03-04T10:18:45;3.50;99.90
14783;DHT22;7483;50.498;12.138;2023-03-04T10:21:22;3.50;99.90
14783;DHT22;7483;50.498;12.138;2023-03-04T10:23:56;3.60;99.90
14783;DHT22;7483;50.498;12.138;2023-03-04T10:26:28;3.60;99.90
14783;DHT22;7483;50.498;12.138;2023-03-04T10:28:59;3.70;99.90
14783;DHT22;7483;50.498;12.138;2023-03-04T10:31:32;3.70;99.90
14783;DHT22;7483;50.498;12.138;2023-03-04T10:34:02;3.70;99.90
14783;DHT22;7483;50.498;12.138;2023-03-04T10:36:42;3.70;99.90
14783;DHT22;7483;50.498;12.138;2023-03-04T10:39:20;3.70;99.90
14783;DHT22;7483;50.498;12.138;2023-03-04T10:41:56;3.70;99.90
14783;DHT22;7483;50.498;12.138;2023-03-04T10:44:27;3.70;99.90
14783;DHT22;7483;50.498;12.138;2023-03-04T10:46:57;3.80;99.90
14783;DHT22;7483;50.498;12.138;2023-03-04T10:49:27;3.80;99.90
14783;DHT22;7483;50.498;12.138;2023-03-04T10:52:11;3.90;99.90
14783;DHT22;7483;50.498;12.138;2023-03-04T10:54:47;3.90;99.90
14783;DHT22;7483;50.498;12.138;2023-03-04T10:57:19;3.80;99.90
14783;DHT22;7483;50.498;12.138;2023-03-04T10:59:55;3.80;99.90
14783;DHT22;7483;50.498;12.138;2023-03-04T11:02:25;3.80;99.90
14783;DHT22;7483;50.498;12.138;2023-03-04T11:05:01;3.90;99.90
14783;DHT22;7483;50.498;12.138;2023-03-04T11:07:39;4.00;99.90
14783;DHT22;7483;50.498;12.138;2023-03-04T11:10:23;4.00;99.90
14783;DHT22;7483;50.498;12.138;2023-03-04T11:12:59;4.00;99.90
14783;DHT22;7483;50.498;12.138;2023-03-04T11:15:29;3.90;99.90
14783;DHT22;7483;50.498;12.138;2023-03-04T11:18:19;4.00;99.90
14783;DHT22;7483;50.498;12.138;2023-03-04T11:20:53;4.00;99.90
14783;DHT22;7483;50.498;12.138;2023-03-04T11:23:28;4.00;99.90
14783;DHT22;7483;50.498;12.138;2023-03-04T11:26:04;4.20;99.90
14783;DHT22;7483;50.498;12.138;2023-03-04T11:28:41;4.20;99.90
14783;DHT22;7483;50.498;12.138;2023-03-04T11:31:15;4.10;99.90
14783;DHT22;7483;50.498;12.138;2023-03-04T11:33:54;4.10;99.90
14783;DHT22;7483;50.498;12.138;2023-03-04T11:36:32;4.10;99.90
14783;DHT22;7483;50.498;12.138;2023-03-04T11:39:15;4.10;99.90
14783;DHT22;7483;50.498;12.138;2023-03-04T11:41:51;4.10;99.90
14783;DHT22;7483;50.498;12.138;2023-03-04T11:44:26;4.10;99.90
14783;DHT22;7483;50.498;12.138;2023-03-04T11:47:05;4.20;99.90
14783;DHT22;7483;50.498;12.138;2023-03-04T11:56:07;4.30;99.90
14783;DHT22;7483;50.498;12.138;2023-03-04T11:59:07;4.30;99.90
14783;DHT22;7483;50.498;12.138;2023-03-04T12:02:11;4.40;99.90
14783;DHT22;7483;50.498;12.138;2023-03-04T12:04:55;4.50;99.90
14783;DHT22;7483;50.498;12.138;2023-03-04T12:08:07;4.40;99.90
14783;DHT22;7483;50.498;12.138;2023-03-04T12:10:53;4.30;99.90
14783;DHT22;7483;50.498;12.138;2023-03-04T12:13:41;4.40;99.90
14783;DHT22;7483;50.498;12.138;2023-03-04T12:16:39;4.30;99.90
14783;DHT22;7483;50.498;12.138;2023-03-04T12:19:26;4.30;99.90
14783;DHT22;7483;50.498;12.138;2023-03-04T12:22:16;4.30;99.90
14783;DHT22;7483;50.498;12.138;2023-03-04T12:28:17;4.40;99.90
14783;DHT22;7483;50.498;12.138;2023-03-04T12:31:22;4.40;99.90
14783;DHT22;7483;50.498;12.138;2023-03-04T12:37:33;4.40;99.90
14783;DHT22;7483;50.498;12.138;2023-03-04T12:40:29;4.40;99.90
14783;DHT22;7483;50.498;12.138;2023-03-04T12:43:27;4.40;99.90
14783;DHT22;7483;50.498;12.138;2023-03-04T12:46:41;4.40;99.90
14783;DHT22;7483;50.498;12.138;2023-03-04T12:49:29;4.50;99.90
14783;DHT22;7483;50.498;12.138;2023-03-04T12:52:10;4.60;99.90
14783;DHT22;7483;50.498;12.138;2023-03-04T12:54:46;4.60;99.90
14783;DHT22;7483;50.498;12.138;2023-03-04T12:57:18;4.50;99.90
14783;DHT22;7483;50.498;12.138;2023-03-04T12:59:53;4.50;99.90
14783;DHT22;7483;50.498;12.138;2023-03-04T13:02:43;4.50;99.90
14783;DHT22;7483;50.498;12.138;2023-03-04T13:05:31;4.60;99.90
14783;DHT22;7483;50.498;12.138;2023-03-04T13:08:15;4.70;99.90
14783;DHT22;7483;50.498;12.138;2023-03-04T13:11:00;4.70;99.90
14783;DHT22;7483;50.498;12.138;2023-03-04T13:13:38;4.70;99.90
14783;DHT22;7483;50.498;12.138;2023-03-04T13:16:28;4.60;99.90
14783;DHT22;7483;50.498;12.138;2023-03-04T13:19:00;4.60;99.90
14783;DHT22;7483;50.498;12.138;2023-03-04T13:21:29;4.60;99.90
14783;DHT22;7483;50.498;12.138;2023-03-04T13:24:00;4.70;99.90
14783;DHT22;7483;50.498;12.138;2023-03-04T13:27:44;4.60;99.90
14783;DHT22;7483;50.498;12.138;2023-03-04T13:30:38;4.70;99.90
14783;DHT22;7483;50.498;12.138;2023-03-04T13:39:27;4.80;99.90
14783;DHT22;7483;50.498;12.138;2023-03-04T13:41:57;4.70;99.90
14783;DHT22;7483;50.498;12.138;2023-03-04T13:44:57;4.70;99.90
14783;DHT22;7483;50.498;12.138;2023-03-04T13:47:32;4.70;99.90
14783;DHT22;7483;50.498;12.138;2023-03-04T13:53:44;4.90;99.90
14783;DHT22;7483;50.498;12.138;2023-03-04T13:56:26;4.90;99.90
14783;DHT22;7483;50.498;12.138;2023-03-04T13:59:23;5.00;99.90
14783;DHT22;7483;50.498;12.138;2023-03-04T14:02:09;4.90;99.90
14783;DHT22;7483;50.498;12.138;2023-03-04T14:04:42;4.90;99.90
14783;DHT22;7483;50.498;12.138;2023-03-04T14:07:21;4.80;99.90
14783;DHT22;7483;50.498;12.138;2023-03-04T14:09:58;4.80;99.90
14783;DHT22;7483;50.498;12.138;2023-03-04T14:12:30;4.80;99.90
14783;DHT22;7483;50.498;12.138;2023-03-04T14:15:02;4.80;99.90
14783;DHT22;7483;50.498;12.138;2023-03-04T14:17:34;4.80;99.90
14783;DHT22;7483;50.498;12.138;2023-03-04T14:20:05;4.80;99.90
14783;DHT22;7483;50.498;12.138;2023-03-04T14:22:50;4.80;99.90
14783;DHT22;7483;50.498;12.138;2023-03-04T14:25:24;4.80;99.90
14783;DHT22;7483;50.498;12.138;2023-03-04T14:28:02;4.80;99.90
14783;DHT22;7483;50.498;12.138;2023-03-04T14:30:33;4.80;99.90
14783;DHT22;7483;50.498;12.138;2023-03-04T14:33:14;4.80;99.90
14783;DHT22;7483;50.498;12.138;2023-03-04T14:35:46;4.80;99.90
14783;DHT22;7483;50.498;12.138;2023-03-04T14:38:21;4.80;99.90
14783;DHT22;7483;50.498;12.138;2023-03-04T14:40:54;4.80;99.90
14783;DHT22;7483;50.498;12.138;2023-03-04T14:43:26;4.90;99.90
14783;DHT22;7483;50.498;12.138;2023-03-04T14:45:59;4.80;99.90
14783;DHT22;7483;50.498;12.138;2023-03-04T14:48:30;4.90;99.90
14783;DHT22;7483;50.498;12.138;2023-03-04T14:51:01;4.90;99.90
14783;DHT22;7483;50.498;12.138;2023-03-04T14:53:30;4.90;99.90
14783;DHT22;7483;50.498;12.138;2023-03-04T14:56:02;4.90;99.90
14783;DHT22;7483;50.498;12.138;2023-03-04T14:58:32;4.90;99.90
14783;DHT22;7483;50.498;12.138;2023-03-04T15:01:13;4.90;99.90
14783;DHT22;7483;50.498;12.138;2023-03-04T15:03:50;4.90;99.90
14783;DHT22;7483;50.498;12.138;2023-03-04T15:06:24;4.90;99.90
14783;DHT22;7483;50.498;12.138;2023-03-04T15:08:55;4.90;99.90
14783;DHT22;7483;50.498;12.138;2023-03-04T15:11:29;5.00;99.90
14783;DHT22;7483;50.498;12.138;2023-03-04T15:13:59;5.00;99.90
14783;DHT22;7483;50.498;12.138;2023-03-04T15:16:51;5.00;99.90
14783;DHT22;7483;50.498;12.138;2023-03-04T15:19:26;5.00;99.90
14783;DHT22;7483;50.498;12.138;2023-03-04T15:22:03;5.00;99.90
14783;DHT22;7483;50.498;12.138;2023-03-04T15:24:31;5.00;99.90
14783;DHT22;7483;50.498;12.138;2023-03-04T15:27:01;5.00;99.90
14783;DHT22;7483;50.498;12.138;2023-03-04T15:29:33;5.00;99.90
14783;DHT22;7483;50.498;12.138;2023-03-04T15:32:01;5.00;99.90
14783;DHT22;7483;50.498;12.138;2023-03-04T15:34:29;5.00;99.90
14783;DHT22;7483;50.498;12.138;2023-03-04T15:36:58;5.00;99.90
14783;DHT22;7483;50.498;12.138;2023-03-04T15:39:26;5.00;99.90
14783;DHT22;7483;50.498;12.138;2023-03-04T15:41:54;5.00;99.90
14783;DHT22;7483;50.498;12.138;2023-03-04T15:44:24;5.00;99.90
14783;DHT22;7483;50.498;12.138;2023-03-04T15:46:52;5.00;99.90
14783;DHT22;7483;50.498;12.138;2023-03-04T15:49:20;5.00;99.90
14783;DHT22;7483;50.498;12.138;2023-03-04T15:51:48;5.00;99.90
14783;DHT22;7483;50.498;12.138;2023-03-04T15:54:16;5.00;99.90
14783;DHT22;7483;50.498;12.138;2023-03-04T15:56:44;5.00;99.90
14783;DHT22;7483;50.498;12.138;2023-03-04T15:59:13;5.00;99.90
14783;DHT22;7483;50.498;12.138;2023-03-04T16:01:44;5.00;99.90
14783;DHT22;7483;50.498;12.138;2023-03-04T16:04:14;5.00;99.90
14783;DHT22;7483;50.498;12.138;2023-03-04T16:06:44;4.90;99.90
14783;DHT22;7483;50.498;12.138;2023-03-04T16:09:15;5.00;99.90
14783;DHT22;7483;50.498;12.138;2023-03-04T16:11:45;4.90;99.90
14783;DHT22;7483;50.498;12.138;2023-03-04T16:14:15;4.90;99.90
14783;DHT22;7483;50.498;12.138;2023-03-04T16:16:46;4.90;99.90
14783;DHT22;7483;50.498;12.138;2023-03-04T16:19:16;4.90;99.90
14783;DHT22;7483;50.498;12.138;2023-03-04T16:21:44;4.90;99.90
14783;DHT22;7483;50.498;12.138;2023-03-04T16:24:16;4.90;99.90
14783;DHT22;7483;50.498;12.138;2023-03-04T16:26:46;4.90;99.90
14783;DHT22;7483;50.498;12.138;2023-03-04T16:29:15;4.80;99.90
14783;DHT22;7483;50.498;12.138;2023-03-04T16:31:43;4.90;99.90
14783;DHT22;7483;50.498;12.138;2023-03-04T16:34:12;4.90;99.90
14783;DHT22;7483;50.498;12.138;2023-03-04T16:36:40;4.90;99.90
14783;DHT22;7483;50.498;12.138;2023-03-04T16:39:15;4.90;99.90